sensor_id;sensor_type;location;lat;lon;timestamp;P1;durP1;ratioP1;P2;durP2;ratioP2
51174;SDS011;37240;50.104;20.010;2023-08-12T00:00:15;8.52;;;5.38;;
51174;SDS011;37240;50.104;20.010;2023-08-12T00:05:15;8.82;;;4.80;;
51174;SDS011;37240;50.104;20.010;2023-08-12T00:10:16;11.45;;;5.13;;
51174;SDS011;37240;50.104;20.010;2023-08-12T00:15:17;9.70;;;5.15;;
51174;SDS011;37240;50.104;20.010;2023-08-12T00:20:17;15.90;;;5.80;;
51174;SDS011;37240;50.104;20.010;2023-08-12T00:25:18;11.82;;;5.72;;
51174;SDS011;37240;50.104;20.010;2023-08-12T00:30:18;8.23;;;4.70;;
51174;SDS011;37240;50.104;20.010;2023-08-12T00:35:19;14.93;;;4.75;;
51174;SDS011;37240;50.104;20.010;2023-08-12T00:40:19;15.52;;;5.75;;
51174;SDS011;37240;50.104;20.010;2023-08-12T00:45:20;8.88;;;5.10;;
51174;SDS011;37240;50.104;20.010;2023-08-12T00:50:21;11.55;;;4.93;;
51174;SDS011;37240;50.104;20.010;2023-08-12T00:55:22;7.93;;;4.88;;
51174;SDS011;37240;50.104;20.010;2023-08-12T01:00:22;9.65;;;5.35;;
51174;SDS011;37240;50.104;20.010;2023-08-12T01:05:23;15.23;;;5.72;;
51174;SDS011;37240;50.104;20.010;2023-08-12T01:10:24;19.60;;;5.70;;
51174;SDS011;37240;50.104;20.010;2023-08-12T01:15:31;13.10;;;6.05;;
51174;SDS011;37240;50.104;20.010;2023-08-12T01:20:33;13.77;;;5.25;;
51174;SDS011;37240;50.104;20.010;2023-08-12T01:25:33;8.45;;;5.35;;
51174;SDS011;37240;50.104;20.010;2023-08-12T01:30:36;9.15;;;5.07;;
51174;SDS011;37240;50.104;20.010;2023-08-12T01:35:59;10.50;;;5.50;;
51174;SDS011;37240;50.104;20.010;2023-08-12T01:41:14;7.90;;;5.32;;
51174;SDS011;37240;50.104;20.010;2023-08-12T01:46:16;9.98;;;5.65;;
51174;SDS011;37240;50.104;20.010;2023-08-12T01:51:17;12.98;;;5.43;;
51174;SDS011;37240;50.104;20.010;2023-08-12T01:56:17;14.93;;;5.07;;
51174;SDS011;37240;50.104;20.010;2023-08-12T02:01:18;8.75;;;5.18;;
51174;SDS011;37240;50.104;20.010;2023-08-12T02:06:18;6.80;;;5.07;;
51174;SDS011;37240;50.104;20.010;2023-08-12T02:11:19;5.22;;;4.35;;
51174;SDS011;37240;50.104;20.010;2023-08-12T02:16:19;6.90;;;5.18;;
51174;SDS011;37240;50.104;20.010;2023-08-12T02:21:20;13.07;;;5.75;;
51174;SDS011;37240;50.104;20.010;2023-08-12T02:26:20;8.20;;;4.65;;
51174;SDS011;37240;50.104;20.010;2023-08-12T02:31:21;6.68;;;4.72;;
51174;SDS011;37240;50.104;20.010;2023-08-12T02:36:22;6.80;;;5.13;;
51174;SDS011;37240;50.104;20.010;2023-08-12T02:41:22;14.80;;;5.35;;
51174;SDS011;37240;50.104;20.010;2023-08-12T02:46:23;9.45;;;5.43;;
51174;SDS011;37240;50.104;20.010;2023-08-12T02:51:23;13.93;;;8.15;;
51174;SDS011;37240;50.104;20.010;2023-08-12T02:56:24;12.52;;;6.88;;
51174;SDS011;37240;50.104;20.010;2023-08-12T03:01:24;12.45;;;6.55;;
51174;SDS011;37240;50.104;20.010;2023-08-12T03:06:25;12.43;;;6.28;;
51174;SDS011;37240;50.104;20.010;2023-08-12T03:11:25;10.95;;;6.10;;
51174;SDS011;37240;50.104;20.010;2023-08-12T03:16:26;8.15;;;4.95;;
51174;SDS011;37240;50.104;20.010;2023-08-12T03:21:26;10.18;;;4.55;;
51174;SDS011;37240;50.104;20.010;2023-08-12T03:26:27;8.63;;;5.43;;
51174;SDS011;37240;50.104;20.010;2023-08-12T03:31:27;12.75;;;5.30;;
51174;SDS011;37240;50.104;20.010;2023-08-12T03:36:28;19.17;;;6.40;;
51174;SDS011;37240;50.104;20.010;2023-08-12T03:41:29;11.70;;;5.43;;
51174;SDS011;37240;50.104;20.010;2023-08-12T03:46:29;14.98;;;5.60;;
51174;SDS011;37240;50.104;20.010;2023-08-12T03:51:30;13.32;;;6.00;;
51174;SDS011;37240;50.104;20.010;2023-08-12T03:56:30;6.95;;;5.10;;
51174;SDS011;37240;50.104;20.010;2023-08-12T04:01:31;25.60;;;6.30;;
51174;SDS011;37240;50.104;20.010;2023-08-12T04:06:31;8.80;;;4.93;;
51174;SDS011;37240;50.104;20.010;2023-08-12T04:11:32;7.35;;;5.10;;
51174;SDS011;37240;50.104;20.010;2023-08-12T04:16:32;10.65;;;5.03;;
51174;SDS011;37240;50.104;20.010;2023-08-12T04:21:33;11.95;;;5.68;;
51174;SDS011;37240;50.104;20.010;2023-08-12T04:26:33;8.13;;;4.95;;
51174;SDS011;37240;50.104;20.010;2023-08-12T04:31:34;12.25;;;5.30;;
51174;SDS011;37240;50.104;20.010;2023-08-12T04:36:35;13.63;;;4.97;;
51174;SDS011;37240;50.104;20.010;2023-08-12T04:41:35;6.30;;;4.72;;
51174;SDS011;37240;50.104;20.010;2023-08-12T04:46:36;10.20;;;4.93;;
51174;SDS011;37240;50.104;20.010;2023-08-12T04:51:36;11.10;;;5.45;;
51174;SDS011;37240;50.104;20.010;2023-08-12T04:56:37;12.60;;;5.90;;
51174;SDS011;37240;50.104;20.010;2023-08-12T05:01:37;13.10;;;6.88;;
51174;SDS011;37240;50.104;20.010;2023-08-12T05:06:38;12.60;;;5.53;;
51174;SDS011;37240;50.104;20.010;2023-08-12T05:11:38;10.55;;;5.15;;
51174;SDS011;37240;50.104;20.010;2023-08-12T05:16:39;9.02;;;5.25;;
51174;SDS011;37240;50.104;20.010;2023-08-12T05:21:40;12.18;;;5.13;;
51174;SDS011;37240;50.104;20.010;2023-08-12T05:26:40;10.02;;;4.82;;
51174;SDS011;37240;50.104;20.010;2023-08-12T05:31:41;5.40;;;4.13;;
51174;SDS011;37240;50.104;20.010;2023-08-12T05:36:41;14.25;;;5.32;;
51174;SDS011;37240;50.104;20.010;2023-08-12T05:41:42;13.07;;;5.53;;
51174;SDS011;37240;50.104;20.010;2023-08-12T05:46:43;10.93;;;5.13;;
51174;SDS011;37240;50.104;20.010;2023-08-12T05:51:43;14.68;;;5.38;;
51174;SDS011;37240;50.104;20.010;2023-08-12T05:56:44;11.63;;;5.82;;
51174;SDS011;37240;50.104;20.010;2023-08-12T06:01:44;7.13;;;4.63;;
51174;SDS011;37240;50.104;20.010;2023-08-12T06:06:45;14.70;;;5.80;;
51174;SDS011;37240;50.104;20.010;2023-08-12T06:11:45;10.57;;;5.35;;
51174;SDS011;37240;50.104;20.010;2023-08-12T06:16:46;15.68;;;6.85;;
51174;SDS011;37240;50.104;20.010;2023-08-12T06:21:46;9.52;;;5.50;;
51174;SDS011;37240;50.104;20.010;2023-08-12T06:26:47;13.15;;;5.57;;
51174;SDS011;37240;50.104;20.010;2023-08-12T06:31:47;17.63;;;6.78;;
51174;SDS011;37240;50.104;20.010;2023-08-12T06:36:48;17.60;;;6.05;;
51174;SDS011;37240;50.104;20.010;2023-08-12T06:41:48;41.13;;;6.32;;
51174;SDS011;37240;50.104;20.010;2023-08-12T06:46:49;14.15;;;6.28;;
51174;SDS011;37240;50.104;20.010;2023-08-12T06:51:50;14.80;;;5.68;;
51174;SDS011;37240;50.104;20.010;2023-08-12T06:56:50;13.20;;;6.63;;
51174;SDS011;37240;50.104;20.010;2023-08-12T07:01:51;16.58;;;6.38;;
51174;SDS011;37240;50.104;20.010;2023-08-12T07:06:52;14.43;;;6.35;;
51174;SDS011;37240;50.104;20.010;2023-08-12T07:11:53;14.88;;;6.68;;
51174;SDS011;37240;50.104;20.010;2023-08-12T07:16:53;12.40;;;5.78;;
51174;SDS011;37240;50.104;20.010;2023-08-12T07:21:54;10.18;;;6.25;;
51174;SDS011;37240;50.104;20.010;2023-08-12T07:26:55;12.18;;;5.78;;
51174;SDS011;37240;50.104;20.010;2023-08-12T07:31:55;11.38;;;6.07;;
51174;SDS011;37240;50.104;20.010;2023-08-12T07:36:56;10.15;;;5.75;;
51174;SDS011;37240;50.104;20.010;2023-08-12T07:41:56;12.30;;;6.43;;
51174;SDS011;37240;50.104;20.010;2023-08-12T07:46:57;13.55;;;5.85;;
51174;SDS011;37240;50.104;20.010;2023-08-12T07:51:57;8.80;;;5.20;;
51174;SDS011;37240;50.104;20.010;2023-08-12T07:56:58;14.10;;;5.45;;
51174;SDS011;37240;50.104;20.010;2023-08-12T08:01:59;10.45;;;5.72;;
51174;SDS011;37240;50.104;20.010;2023-08-12T08:06:59;9.00;;;4.85;;
51174;SDS011;37240;50.104;20.010;2023-08-12T08:12:00;7.63;;;5.28;;
51174;SDS011;37240;50.104;20.010;2023-08-12T08:17:01;7.18;;;4.93;;
51174;SDS011;37240;50.104;20.010;2023-08-12T08:22:01;6.25;;;4.45;;
51174;SDS011;37240;50.104;20.010;2023-08-12T08:27:02;4.53;;;3.67;;
51174;SDS011;37240;50.104;20.010;2023-08-12T08:32:03;7.55;;;4.15;;
51174;SDS011;37240;50.104;20.010;2023-08-12T08:37:03;6.95;;;3.70;;
51174;SDS011;37240;50.104;20.010;2023-08-12T08:42:05;4.85;;;3.63;;
51174;SDS011;37240;50.104;20.010;2023-08-12T08:47:06;8.63;;;4.05;;
51174;SDS011;37240;50.104;20.010;2023-08-12T08:52:06;7.85;;;4.30;;
51174;SDS011;37240;50.104;20.010;2023-08-12T08:57:07;4.65;;;3.08;;
51174;SDS011;37240;50.104;20.010;2023-08-12T09:02:10;4.57;;;3.00;;
51174;SDS011;37240;50.104;20.010;2023-08-12T09:07:16;3.08;;;2.80;;
51174;SDS011;37240;50.104;20.010;2023-08-12T09:12:17;3.10;;;2.17;;
51174;SDS011;37240;50.104;20.010;2023-08-12T09:17:19;4.90;;;1.85;;
51174;SDS011;37240;50.104;20.010;2023-08-12T09:22:20;3.92;;;3.33;;
51174;SDS011;37240;50.104;20.010;2023-08-12T09:27:24;8.73;;;5.67;;
51174;SDS011;37240;50.104;20.010;2023-08-12T09:32:24;16.45;;;6.15;;
51174;SDS011;37240;50.104;20.010;2023-08-12T09:37:25;9.38;;;5.18;;
51174;SDS011;37240;50.104;20.010;2023-08-12T09:42:26;8.43;;;4.03;;
51174;SDS011;37240;50.104;20.010;2023-08-12T09:47:28;4.68;;;3.08;;
51174;SDS011;37240;50.104;20.010;2023-08-12T09:52:28;4.63;;;2.53;;
51174;SDS011;37240;50.104;20.010;2023-08-12T09:57:29;8.80;;;3.17;;
51174;SDS011;37240;50.104;20.010;2023-08-12T10:02:33;2.40;;;2.20;;
51174;SDS011;37240;50.104;20.010;2023-08-12T10:07:34;4.20;;;2.28;;
51174;SDS011;37240;50.104;20.010;2023-08-12T10:12:36;4.55;;;2.75;;
51174;SDS011;37240;50.104;20.010;2023-08-12T10:17:38;2.28;;;1.92;;
51174;SDS011;37240;50.104;20.010;2023-08-12T10:22:40;3.15;;;1.98;;
51174;SDS011;37240;50.104;20.010;2023-08-12T10:27:42;10.43;;;3.40;;
51174;SDS011;37240;50.104;20.010;2023-08-12T10:32:43;3.67;;;2.30;;
51174;SDS011;37240;50.104;20.010;2023-08-12T10:37:48;3.25;;;2.30;;
51174;SDS011;37240;50.104;20.010;2023-08-12T10:42:49;4.90;;;2.60;;
51174;SDS011;37240;50.104;20.010;2023-08-12T10:53:22;3.63;;;3.05;;
51174;SDS011;37240;50.104;20.010;2023-08-12T10:58:46;6.88;;;2.60;;
51174;SDS011;37240;50.104;20.010;2023-08-12T11:03:48;3.60;;;2.60;;
51174;SDS011;37240;50.104;20.010;2023-08-12T11:08:52;3.72;;;2.88;;
51174;SDS011;37240;50.104;20.010;2023-08-12T11:13:53;3.95;;;2.67;;
51174;SDS011;37240;50.104;20.010;2023-08-12T11:18:55;3.10;;;2.10;;
51174;SDS011;37240;50.104;20.010;2023-08-12T11:23:57;6.97;;;3.10;;
51174;SDS011;37240;50.104;20.010;2023-08-12T11:28:59;4.93;;;2.83;;
51174;SDS011;37240;50.104;20.010;2023-08-12T11:34:00;10.02;;;3.03;;
51174;SDS011;37240;50.104;20.010;2023-08-12T11:39:00;2.72;;;2.40;;
51174;SDS011;37240;50.104;20.010;2023-08-12T11:44:01;4.38;;;2.35;;
51174;SDS011;37240;50.104;20.010;2023-08-12T11:49:02;5.18;;;2.65;;
51174;SDS011;37240;50.104;20.010;2023-08-12T11:54:03;3.05;;;2.05;;
51174;SDS011;37240;50.104;20.010;2023-08-12T11:59:04;5.82;;;1.90;;
51174;SDS011;37240;50.104;20.010;2023-08-12T12:04:04;2.97;;;2.42;;
51174;SDS011;37240;50.104;20.010;2023-08-12T12:09:06;6.05;;;2.70;;
51174;SDS011;37240;50.104;20.010;2023-08-12T12:14:08;2.40;;;2.20;;
51174;SDS011;37240;50.104;20.010;2023-08-12T12:19:22;4.50;;;2.00;;
51174;SDS011;37240;50.104;20.010;2023-08-12T12:24:23;5.95;;;2.30;;
51174;SDS011;37240;50.104;20.010;2023-08-12T12:29:29;4.93;;;3.00;;
51174;SDS011;37240;50.104;20.010;2023-08-12T12:34:30;3.05;;;2.20;;
51174;SDS011;37240;50.104;20.010;2023-08-12T12:39:30;2.10;;;1.77;;
51174;SDS011;37240;50.104;20.010;2023-08-12T12:44:31;4.78;;;2.47;;
51174;SDS011;37240;50.104;20.010;2023-08-12T12:49:31;2.60;;;2.33;;
51174;SDS011;37240;50.104;20.010;2023-08-12T12:54:32;2.85;;;2.10;;
51174;SDS011;37240;50.104;20.010;2023-08-12T12:59:33;1.98;;;1.58;;
51174;SDS011;37240;50.104;20.010;2023-08-12T13:04:33;4.13;;;2.33;;
51174;SDS011;37240;50.104;20.010;2023-08-12T13:09:34;2.58;;;2.25;;
51174;SDS011;37240;50.104;20.010;2023-08-12T13:14:34;2.67;;;1.90;;
51174;SDS011;37240;50.104;20.010;2023-08-12T13:19:35;8.85;;;2.95;;
51174;SDS011;37240;50.104;20.010;2023-08-12T13:24:35;2.72;;;2.10;;
51174;SDS011;37240;50.104;20.010;2023-08-12T13:29:36;4.55;;;2.10;;
51174;SDS011;37240;50.104;20.010;2023-08-12T13:34:36;3.03;;;2.15;;
51174;SDS011;37240;50.104;20.010;2023-08-12T13:39:37;2.72;;;2.05;;
51174;SDS011;37240;50.104;20.010;2023-08-12T13:44:37;4.60;;;2.38;;
51174;SDS011;37240;50.104;20.010;2023-08-12T13:49:38;3.65;;;1.85;;
51174;SDS011;37240;50.104;20.010;2023-08-12T13:54:38;4.22;;;3.33;;
51174;SDS011;37240;50.104;20.010;2023-08-12T13:59:39;1.95;;;1.83;;
51174;SDS011;37240;50.104;20.010;2023-08-12T14:04:39;2.45;;;1.70;;
51174;SDS011;37240;50.104;20.010;2023-08-12T14:09:41;2.42;;;2.03;;
51174;SDS011;37240;50.104;20.010;2023-08-12T14:14:42;3.17;;;2.42;;
51174;SDS011;37240;50.104;20.010;2023-08-12T14:19:43;2.53;;;1.80;;
51174;SDS011;37240;50.104;20.010;2023-08-12T14:24:44;7.07;;;2.10;;
51174;SDS011;37240;50.104;20.010;2023-08-12T14:29:45;3.80;;;2.30;;
51174;SDS011;37240;50.104;20.010;2023-08-12T14:34:46;1.95;;;1.77;;
51174;SDS011;37240;50.104;20.010;2023-08-12T14:39:46;2.90;;;2.47;;
51174;SDS011;37240;50.104;20.010;2023-08-12T14:44:47;2.00;;;1.83;;
51174;SDS011;37240;50.104;20.010;2023-08-12T14:49:47;1.80;;;1.70;;
51174;SDS011;37240;50.104;20.010;2023-08-12T14:54:48;2.42;;;1.88;;
51174;SDS011;37240;50.104;20.010;2023-08-12T14:59:48;5.53;;;1.90;;
51174;SDS011;37240;50.104;20.010;2023-08-12T15:04:49;3.60;;;1.95;;
51174;SDS011;37240;50.104;20.010;2023-08-12T15:09:50;2.10;;;1.95;;
51174;SDS011;37240;50.104;20.010;2023-08-12T15:14:50;2.20;;;2.00;;
51174;SDS011;37240;50.104;20.010;2023-08-12T15:19:51;1.70;;;1.45;;
51174;SDS011;37240;50.104;20.010;2023-08-12T15:24:52;2.33;;;1.98;;
51174;SDS011;37240;50.104;20.010;2023-08-12T15:29:52;3.83;;;1.98;;
51174;SDS011;37240;50.104;20.010;2023-08-12T15:34:53;2.22;;;1.58;;
51174;SDS011;37240;50.104;20.010;2023-08-12T15:39:53;3.20;;;2.13;;
51174;SDS011;37240;50.104;20.010;2023-08-12T15:44:54;3.10;;;2.30;;
51174;SDS011;37240;50.104;20.010;2023-08-12T15:49:55;2.05;;;1.95;;
51174;SDS011;37240;50.104;20.010;2023-08-12T15:54:55;1.63;;;1.52;;
51174;SDS011;37240;50.104;20.010;2023-08-12T15:59:56;1.75;;;1.65;;
51174;SDS011;37240;50.104;20.010;2023-08-12T16:04:56;2.25;;;2.05;;
51174;SDS011;37240;50.104;20.010;2023-08-12T16:09:57;2.60;;;2.10;;
51174;SDS011;37240;50.104;20.010;2023-08-12T16:14:58;3.30;;;1.77;;
51174;SDS011;37240;50.104;20.010;2023-08-12T16:19:58;2.17;;;1.60;;
51174;SDS011;37240;50.104;20.010;2023-08-12T16:24:59;2.03;;;1.83;;
51174;SDS011;37240;50.104;20.010;2023-08-12T16:29:59;2.25;;;1.70;;
51174;SDS011;37240;50.104;20.010;2023-08-12T16:35:00;2.15;;;2.05;;
51174;SDS011;37240;50.104;20.010;2023-08-12T16:40:00;2.08;;;1.65;;
51174;SDS011;37240;50.104;20.010;2023-08-12T16:45:01;5.68;;;2.25;;
51174;SDS011;37240;50.104;20.010;2023-08-12T16:50:02;2.55;;;2.35;;
51174;SDS011;37240;50.104;20.010;2023-08-12T16:55:03;2.90;;;1.98;;
51174;SDS011;37240;50.104;20.010;2023-08-12T17:00:04;2.95;;;1.67;;
51174;SDS011;37240;50.104;20.010;2023-08-12T17:05:05;1.95;;;1.80;;
51174;SDS011;37240;50.104;20.010;2023-08-12T17:10:06;3.33;;;1.88;;
51174;SDS011;37240;50.104;20.010;2023-08-12T17:15:07;3.60;;;1.92;;
51174;SDS011;37240;50.104;20.010;2023-08-12T17:20:08;2.67;;;1.50;;
51174;SDS011;37240;50.104;20.010;2023-08-12T17:25:09;3.50;;;2.35;;
51174;SDS011;37240;50.104;20.010;2023-08-12T17:30:10;1.75;;;1.65;;
51174;SDS011;37240;50.104;20.010;2023-08-12T17:35:10;2.50;;;1.55;;
51174;SDS011;37240;50.104;20.010;2023-08-12T17:40:11;3.78;;;2.25;;
51174;SDS011;37240;50.104;20.010;2023-08-12T17:45:12;2.33;;;2.13;;
51174;SDS011;37240;50.104;20.010;2023-08-12T17:50:13;2.33;;;2.05;;
51174;SDS011;37240;50.104;20.010;2023-08-12T17:55:13;2.78;;;1.70;;
51174;SDS011;37240;50.104;20.010;2023-08-12T18:00:14;2.97;;;2.03;;
51174;SDS011;37240;50.104;20.010;2023-08-12T18:05:15;2.00;;;1.88;;
51174;SDS011;37240;50.104;20.010;2023-08-12T18:10:15;3.40;;;2.17;;
51174;SDS011;37240;50.104;20.010;2023-08-12T18:15:16;2.05;;;1.92;;
51174;SDS011;37240;50.104;20.010;2023-08-12T18:20:17;2.85;;;2.55;;
51174;SDS011;37240;50.104;20.010;2023-08-12T18:25:17;20.67;;;12.85;;
51174;SDS011;37240;50.104;20.010;2023-08-12T18:30:18;11.90;;;7.95;;
51174;SDS011;37240;50.104;20.010;2023-08-12T18:35:18;10.73;;;5.88;;
51174;SDS011;37240;50.104;20.010;2023-08-12T18:40:19;13.65;;;5.03;;
51174;SDS011;37240;50.104;20.010;2023-08-12T18:45:19;11.75;;;4.25;;
51174;SDS011;37240;50.104;20.010;2023-08-12T18:50:20;13.20;;;4.68;;
51174;SDS011;37240;50.104;20.010;2023-08-12T18:55:20;9.00;;;4.22;;
51174;SDS011;37240;50.104;20.010;2023-08-12T19:00:21;21.77;;;5.90;;
51174;SDS011;37240;50.104;20.010;2023-08-12T19:05:22;8.75;;;4.45;;
51174;SDS011;37240;50.104;20.010;2023-08-12T19:10:22;18.83;;;5.38;;
51174;SDS011;37240;50.104;20.010;2023-08-12T19:15:23;14.65;;;5.60;;
51174;SDS011;37240;50.104;20.010;2023-08-12T19:20:23;13.18;;;5.68;;
51174;SDS011;37240;50.104;20.010;2023-08-12T19:25:24;27.73;;;6.82;;
51174;SDS011;37240;50.104;20.010;2023-08-12T19:30:24;13.50;;;5.78;;
51174;SDS011;37240;50.104;20.010;2023-08-12T19:35:25;22.83;;;5.88;;
51174;SDS011;37240;50.104;20.010;2023-08-12T19:40:26;18.25;;;6.00;;
51174;SDS011;37240;50.104;20.010;2023-08-12T19:45:26;20.58;;;7.05;;
51174;SDS011;37240;50.104;20.010;2023-08-12T19:50:27;31.85;;;6.22;;
51174;SDS011;37240;50.104;20.010;2023-08-12T19:55:27;24.02;;;7.32;;
51174;SDS011;37240;50.104;20.010;2023-08-12T20:00:28;15.95;;;6.60;;
51174;SDS011;37240;50.104;20.010;2023-08-12T20:05:29;24.95;;;8.88;;
51174;SDS011;37240;50.104;20.010;2023-08-12T20:10:30;33.30;;;8.40;;
51174;SDS011;37240;50.104;20.010;2023-08-12T20:15:31;18.25;;;8.15;;
51174;SDS011;37240;50.104;20.010;2023-08-12T20:20:32;29.13;;;7.50;;
51174;SDS011;37240;50.104;20.010;2023-08-12T20:25:33;18.40;;;6.45;;
51174;SDS011;37240;50.104;20.010;2023-08-12T20:30:34;31.33;;;10.18;;
51174;SDS011;37240;50.104;20.010;2023-08-12T20:35:34;16.67;;;7.40;;
51174;SDS011;37240;50.104;20.010;2023-08-12T20:40:35;19.60;;;7.43;;
51174;SDS011;37240;50.104;20.010;2023-08-12T20:45:36;18.45;;;7.95;;
51174;SDS011;37240;50.104;20.010;2023-08-12T20:50:36;16.80;;;7.97;;
51174;SDS011;37240;50.104;20.010;2023-08-12T20:55:37;22.35;;;7.90;;
51174;SDS011;37240;50.104;20.010;2023-08-12T21:00:38;17.88;;;6.68;;
51174;SDS011;37240;50.104;20.010;2023-08-12T21:05:38;23.75;;;8.50;;
51174;SDS011;37240;50.104;20.010;2023-08-12T21:10:39;58.00;;;16.70;;
51174;SDS011;37240;50.104;20.010;2023-08-12T21:15:40;22.02;;;8.85;;
51174;SDS011;37240;50.104;20.010;2023-08-12T21:20:40;15.77;;;7.07;;
51174;SDS011;37240;50.104;20.010;2023-08-12T21:25:41;21.50;;;7.38;;
51174;SDS011;37240;50.104;20.010;2023-08-12T21:30:41;21.83;;;8.75;;
51174;SDS011;37240;50.104;20.010;2023-08-12T21:35:42;27.63;;;9.02;;
51174;SDS011;37240;50.104;20.010;2023-08-12T21:40:42;25.83;;;10.93;;
51174;SDS011;37240;50.104;20.010;2023-08-12T21:45:43;25.23;;;7.25;;
51174;SDS011;37240;50.104;20.010;2023-08-12T21:50:44;25.83;;;7.32;;
51174;SDS011;37240;50.104;20.010;2023-08-12T21:55:44;23.02;;;7.75;;
51174;SDS011;37240;50.104;20.010;2023-08-12T22:00:45;16.83;;;8.00;;
51174;SDS011;37240;50.104;20.010;2023-08-12T22:05:45;19.30;;;7.38;;
51174;SDS011;37240;50.104;20.010;2023-08-12T22:10:46;12.77;;;6.72;;
51174;SDS011;37240;50.104;20.010;2023-08-12T22:15:46;32.45;;;8.85;;
51174;SDS011;37240;50.104;20.010;2023-08-12T22:20:47;30.83;;;8.63;;
51174;SDS011;37240;50.104;20.010;2023-08-12T22:25:50;20.27;;;7.68;;
51174;SDS011;37240;50.104;20.010;2023-08-12T22:30:50;24.08;;;7.75;;
51174;SDS011;37240;50.104;20.010;2023-08-12T22:35:51;26.00;;;8.48;;
51174;SDS011;37240;50.104;20.010;2023-08-12T22:40:51;23.73;;;7.70;;
51174;SDS011;37240;50.104;20.010;2023-08-12T22:45:52;22.55;;;7.75;;
51174;SDS011;37240;50.104;20.010;2023-08-12T22:50:52;32.22;;;8.60;;
51174;SDS011;37240;50.104;20.010;2023-08-12T22:55:53;18.35;;;7.82;;
51174;SDS011;37240;50.104;20.010;2023-08-12T23:00:54;16.75;;;7.05;;
51174;SDS011;37240;50.104;20.010;2023-08-12T23:05:54;18.00;;;8.95;;
51174;SDS011;37240;50.104;20.010;2023-08-12T23:10:55;22.25;;;8.82;;
51174;SDS011;37240;50.104;20.010;2023-08-12T23:15:55;25.25;;;8.65;;
51174;SDS011;37240;50.104;20.010;2023-08-12T23:20:56;13.65;;;7.72;;
51174;SDS011;37240;50.104;20.010;2023-08-12T23:25:56;13.80;;;6.93;;
51174;SDS011;37240;50.104;20.010;2023-08-12T23:30:57;13.80;;;8.13;;
51174;SDS011;37240;50.104;20.010;2023-08-12T23:35:58;20.13;;;7.20;;
51174;SDS011;37240;50.104;20.010;2023-08-12T23:40:58;21.98;;;7.00;;
51174;SDS011;37240;50.104;20.010;2023-08-12T23:45:59;11.73;;;6.80;;
51174;SDS011;37240;50.104;20.010;2023-08-12T23:51:00;21.90;;;7.53;;
51174;SDS011;37240;50.104;20.010;2023-08-12T23:56:00;19.17;;;7.40;;
